sensor_id;sensor_type;location;lat;lon;timestamp;temperature;humidity
1205;DHT22;592;48.764;9.174;2023-03-23T00:01:11;13.80;98.20
1205;DHT22;592;48.764;9.174;2023-03-23T00:03:45;13.80;98.00
1205;DHT22;592;48.764;9.174;2023-03-23T00:06:14;13.90;97.90
1205;DHT22;592;48.764;9.174;2023-03-23T00:08:44;13.80;97.90
1205;DHT22;592;48.764;9.174;2023-03-23T00:11:11;13.80;97.70
1205;DHT22;592;48.764;9.174;2023-03-23T00:13:40;13.70;97.80
1205;DHT22;592;48.764;9.174;2023-03-23T00:16:07;13.80;97.90
1205;DHT22;592;48.764;9.174;2023-03-23T00:18:42;13.90;97.80
1205;DHT22;592;48.764;9.174;2023-03-23T00:21:09;13.90;98.00
1205;DHT22;592;48.764;9.174;2023-03-23T00:23:37;13.90;97.90
1205;DHT22;592;48.764;9.174;2023-03-23T00:26:05;13.90;97.80
1205;DHT22;592;48.764;9.174;2023-03-23T00:28:32;13.90;98.10
1205;DHT22;592;48.764;9.174;2023-03-23T00:31:01;13.90;98.00
1205;DHT22;592;48.764;9.174;2023-03-23T00:33:30;13.90;98.00
1205;DHT22;592;48.764;9.174;2023-03-23T00:35:59;13.90;98.30
1205;DHT22;592;48.764;9.174;2023-03-23T00:38:26;13.90;98.20
1205;DHT22;592;48.764;9.174;2023-03-23T00:40:54;13.80;98.10
1205;DHT22;592;48.764;9.174;2023-03-23T00:43:23;13.90;97.90
1205;DHT22;592;48.764;9.174;2023-03-23T00:45:50;13.80;98.00
1205;DHT22;592;48.764;9.174;2023-03-23T00:48:19;13.90;98.10
1205;DHT22;592;48.764;9.174;2023-03-23T00:50:46;13.80;97.80
1205;DHT22;592;48.764;9.174;2023-03-23T00:53:13;13.90;97.70
1205;DHT22;592;48.764;9.174;2023-03-23T00:55:40;13.80;97.90
1205;DHT22;592;48.764;9.174;2023-03-23T00:58:09;13.90;97.90
1205;DHT22;592;48.764;9.174;2023-03-23T01:00:36;13.90;97.70
1205;DHT22;592;48.764;9.174;2023-03-23T01:03:03;13.90;97.90
1205;DHT22;592;48.764;9.174;2023-03-23T01:05:34;13.90;97.60
1205;DHT22;592;48.764;9.174;2023-03-23T01:08:01;13.80;97.80
1205;DHT22;592;48.764;9.174;2023-03-23T01:10:28;13.80;98.00
1205;DHT22;592;48.764;9.174;2023-03-23T01:12:58;13.90;97.90
1205;DHT22;592;48.764;9.174;2023-03-23T01:15:27;13.90;97.70
1205;DHT22;592;48.764;9.174;2023-03-23T01:17:55;14.00;97.70
1205;DHT22;592;48.764;9.174;2023-03-23T01:20:22;14.10;98.00
1205;DHT22;592;48.764;9.174;2023-03-23T01:22:48;13.80;97.70
1205;DHT22;592;48.764;9.174;2023-03-23T01:25:15;13.80;97.60
1205;DHT22;592;48.764;9.174;2023-03-23T01:27:42;13.90;97.70
1205;DHT22;592;48.764;9.174;2023-03-23T01:30:11;14.00;97.80
1205;DHT22;592;48.764;9.174;2023-03-23T01:32:40;13.80;98.00
1205;DHT22;592;48.764;9.174;2023-03-23T01:35:07;14.70;98.10
1205;DHT22;592;48.764;9.174;2023-03-23T01:37:35;13.80;98.00
1205;DHT22;592;48.764;9.174;2023-03-23T01:40:02;13.80;97.90
1205;DHT22;592;48.764;9.174;2023-03-23T01:42:31;13.70;97.90
1205;DHT22;592;48.764;9.174;2023-03-23T01:45:30;13.70;97.80
1205;DHT22;592;48.764;9.174;2023-03-23T01:48:05;13.70;97.80
1205;DHT22;592;48.764;9.174;2023-03-23T01:50:37;13.70;97.80
1205;DHT22;592;48.764;9.174;2023-03-23T01:53:07;13.70;97.90
1205;DHT22;592;48.764;9.174;2023-03-23T01:55:36;13.60;98.00
1205;DHT22;592;48.764;9.174;2023-03-23T01:58:05;13.70;98.10
1205;DHT22;592;48.764;9.174;2023-03-23T02:00:32;13.60;98.20
1205;DHT22;592;48.764;9.174;2023-03-23T02:03:01;13.60;98.50
1205;DHT22;592;48.764;9.174;2023-03-23T02:05:31;13.60;98.40
1205;DHT22;592;48.764;9.174;2023-03-23T02:08:01;13.50;98.40
1205;DHT22;592;48.764;9.174;2023-03-23T02:10:30;13.40;98.40
1205;DHT22;592;48.764;9.174;2023-03-23T02:12:57;13.30;98.50
1205;DHT22;592;48.764;9.174;2023-03-23T02:15:25;13.40;98.70
1205;DHT22;592;48.764;9.174;2023-03-23T02:18:02;13.30;98.80
1205;DHT22;592;48.764;9.174;2023-03-23T02:20:53;13.20;99.00
1205;DHT22;592;48.764;9.174;2023-03-23T02:23:56;13.20;99.20
1205;DHT22;592;48.764;9.174;2023-03-23T02:26:42;13.20;99.10
1205;DHT22;592;48.764;9.174;2023-03-23T02:29:36;13.30;99.10
1205;DHT22;592;48.764;9.174;2023-03-23T02:32:32;13.30;99.00
1205;DHT22;592;48.764;9.174;2023-03-23T02:35:08;13.40;99.00
1205;DHT22;592;48.764;9.174;2023-03-23T02:37:42;13.40;99.00
1205;DHT22;592;48.764;9.174;2023-03-23T02:40:15;13.50;99.00
1205;DHT22;592;48.764;9.174;2023-03-23T02:42:46;13.50;99.10
1205;DHT22;592;48.764;9.174;2023-03-23T02:45:16;13.50;99.00
1205;DHT22;592;48.764;9.174;2023-03-23T02:47:43;13.50;98.90
1205;DHT22;592;48.764;9.174;2023-03-23T02:50:14;13.60;98.70
1205;DHT22;592;48.764;9.174;2023-03-23T02:52:43;13.50;98.90
1205;DHT22;592;48.764;9.174;2023-03-23T02:55:11;13.50;98.90
1205;DHT22;592;48.764;9.174;2023-03-23T02:57:39;13.50;99.10
1205;DHT22;592;48.764;9.174;2023-03-23T03:00:10;13.50;99.10
1205;DHT22;592;48.764;9.174;2023-03-23T03:02:40;13.40;99.20
1205;DHT22;592;48.764;9.174;2023-03-23T03:05:17;13.40;99.50
1205;DHT22;592;48.764;9.174;2023-03-23T03:07:54;13.40;99.30
1205;DHT22;592;48.764;9.174;2023-03-23T03:10:26;13.50;99.60
1205;DHT22;592;48.764;9.174;2023-03-23T03:12:59;13.50;99.40
1205;DHT22;592;48.764;9.174;2023-03-23T03:15:33;13.50;99.10
1205;DHT22;592;48.764;9.174;2023-03-23T03:18:07;13.50;99.20
1205;DHT22;592;48.764;9.174;2023-03-23T03:20:42;13.50;99.10
1205;DHT22;592;48.764;9.174;2023-03-23T03:23:11;13.50;99.10
1205;DHT22;592;48.764;9.174;2023-03-23T03:25:40;13.50;99.30
1205;DHT22;592;48.764;9.174;2023-03-23T03:28:08;13.30;99.60
1205;DHT22;592;48.764;9.174;2023-03-23T03:30:36;13.20;99.90
1205;DHT22;592;48.764;9.174;2023-03-23T03:33:03;13.10;99.90
1205;DHT22;592;48.764;9.174;2023-03-23T03:35:30;13.10;99.90
1205;DHT22;592;48.764;9.174;2023-03-23T03:38:05;13.00;99.90
1205;DHT22;592;48.764;9.174;2023-03-23T03:40:33;13.00;99.90
1205;DHT22;592;48.764;9.174;2023-03-23T03:43:00;13.10;99.90
1205;DHT22;592;48.764;9.174;2023-03-23T03:45:27;13.00;99.90
1205;DHT22;592;48.764;9.174;2023-03-23T03:47:54;13.00;99.90
1205;DHT22;592;48.764;9.174;2023-03-23T03:50:21;13.00;99.90
1205;DHT22;592;48.764;9.174;2023-03-23T03:52:48;13.10;99.90
1205;DHT22;592;48.764;9.174;2023-03-23T03:55:17;13.20;99.90
1205;DHT22;592;48.764;9.174;2023-03-23T03:57:43;13.20;99.90
1205;DHT22;592;48.764;9.174;2023-03-23T04:00:11;13.20;99.90
1205;DHT22;592;48.764;9.174;2023-03-23T04:02:41;13.30;99.70
1205;DHT22;592;48.764;9.174;2023-03-23T04:05:08;13.30;99.90
1205;DHT22;592;48.764;9.174;2023-03-23T04:07:36;13.40;99.80
1205;DHT22;592;48.764;9.174;2023-03-23T04:10:05;13.40;99.70
1205;DHT22;592;48.764;9.174;2023-03-23T04:12:34;13.40;99.90
1205;DHT22;592;48.764;9.174;2023-03-23T04:15:01;13.40;99.90
1205;DHT22;592;48.764;9.174;2023-03-23T04:17:28;13.40;99.90
1205;DHT22;592;48.764;9.174;2023-03-23T04:19:55;13.80;99.90
1205;DHT22;592;48.764;9.174;2023-03-23T04:22:22;13.30;99.90
1205;DHT22;592;48.764;9.174;2023-03-23T04:24:56;13.30;99.90
1205;DHT22;592;48.764;9.174;2023-03-23T04:27:24;13.40;99.90
1205;DHT22;592;48.764;9.174;2023-03-23T04:29:54;13.40;99.90
1205;DHT22;592;48.764;9.174;2023-03-23T04:32:23;13.40;99.90
1205;DHT22;592;48.764;9.174;2023-03-23T04:34:50;13.50;99.90
1205;DHT22;592;48.764;9.174;2023-03-23T04:37:17;13.50;99.70
1205;DHT22;592;48.764;9.174;2023-03-23T04:39:43;13.60;99.60
1205;DHT22;592;48.764;9.174;2023-03-23T04:42:10;13.60;99.60
1205;DHT22;592;48.764;9.174;2023-03-23T04:44:39;13.70;99.80
1205;DHT22;592;48.764;9.174;2023-03-23T04:47:09;14.00;99.90
1205;DHT22;592;48.764;9.174;2023-03-23T04:49:35;13.70;99.90
1205;DHT22;592;48.764;9.174;2023-03-23T04:52:02;13.70;99.70
1205;DHT22;592;48.764;9.174;2023-03-23T04:54:29;13.80;99.70
1205;DHT22;592;48.764;9.174;2023-03-23T04:56:56;13.80;99.70
1205;DHT22;592;48.764;9.174;2023-03-23T04:59:24;13.90;99.70
1205;DHT22;592;48.764;9.174;2023-03-23T05:01:53;13.90;99.70
1205;DHT22;592;48.764;9.174;2023-03-23T05:04:22;13.80;99.50
1205;DHT22;592;48.764;9.174;2023-03-23T05:06:50;13.90;99.70
1205;DHT22;592;48.764;9.174;2023-03-23T05:09:18;14.10;99.70
1205;DHT22;592;48.764;9.174;2023-03-23T05:11:45;13.90;99.50
1205;DHT22;592;48.764;9.174;2023-03-23T05:14:12;13.80;99.50
1205;DHT22;592;48.764;9.174;2023-03-23T05:16:39;13.90;99.60
1205;DHT22;592;48.764;9.174;2023-03-23T05:19:06;14.00;99.80
1205;DHT22;592;48.764;9.174;2023-03-23T05:21:34;13.90;99.60
1205;DHT22;592;48.764;9.174;2023-03-23T05:24:02;14.00;99.70
1205;DHT22;592;48.764;9.174;2023-03-23T05:26:29;14.00;99.60
1205;DHT22;592;48.764;9.174;2023-03-23T05:28:56;14.20;99.60
1205;DHT22;592;48.764;9.174;2023-03-23T05:31:24;14.00;99.50
1205;DHT22;592;48.764;9.174;2023-03-23T05:33:52;14.00;99.40
1205;DHT22;592;48.764;9.174;2023-03-23T05:36:18;14.00;99.40
1205;DHT22;592;48.764;9.174;2023-03-23T05:38:46;14.00;99.30
1205;DHT22;592;48.764;9.174;2023-03-23T05:41:15;14.50;99.60
1205;DHT22;592;48.764;9.174;2023-03-23T05:43:41;14.10;99.40
1205;DHT22;592;48.764;9.174;2023-03-23T05:46:08;14.10;99.40
1205;DHT22;592;48.764;9.174;2023-03-23T05:48:35;14.10;99.50
1205;DHT22;592;48.764;9.174;2023-03-23T05:51:02;14.10;99.40
1205;DHT22;592;48.764;9.174;2023-03-23T05:53:29;14.20;99.40
1205;DHT22;592;48.764;9.174;2023-03-23T05:55:59;14.10;99.40
1205;DHT22;592;48.764;9.174;2023-03-23T05:58:27;14.20;99.30
1205;DHT22;592;48.764;9.174;2023-03-23T06:00:53;14.20;99.30
1205;DHT22;592;48.764;9.174;2023-03-23T06:03:20;14.20;99.30
1205;DHT22;592;48.764;9.174;2023-03-23T06:05:48;14.30;99.30
1205;DHT22;592;48.764;9.174;2023-03-23T06:08:15;14.20;99.20
1205;DHT22;592;48.764;9.174;2023-03-23T06:10:42;14.30;99.40
1205;DHT22;592;48.764;9.174;2023-03-23T06:13:25;14.30;99.30
1205;DHT22;592;48.764;9.174;2023-03-23T06:16:21;14.30;99.20
1205;DHT22;592;48.764;9.174;2023-03-23T06:18:52;14.30;99.20
1205;DHT22;592;48.764;9.174;2023-03-23T06:21:18;14.30;99.40
1205;DHT22;592;48.764;9.174;2023-03-23T06:23:47;14.30;99.20
1205;DHT22;592;48.764;9.174;2023-03-23T06:26:14;14.30;99.40
1205;DHT22;592;48.764;9.174;2023-03-23T06:28:44;14.30;99.40
1205;DHT22;592;48.764;9.174;2023-03-23T06:31:11;14.30;99.40
1205;DHT22;592;48.764;9.174;2023-03-23T06:33:39;14.40;99.40
1205;DHT22;592;48.764;9.174;2023-03-23T06:36:07;14.40;99.40
1205;DHT22;592;48.764;9.174;2023-03-23T06:38:34;14.40;99.30
1205;DHT22;592;48.764;9.174;2023-03-23T06:41:01;14.30;99.40
1205;DHT22;592;48.764;9.174;2023-03-23T06:43:28;14.30;99.40
1205;DHT22;592;48.764;9.174;2023-03-23T06:45:58;14.40;99.70
1205;DHT22;592;48.764;9.174;2023-03-23T06:48:25;14.40;99.40
1205;DHT22;592;48.764;9.174;2023-03-23T06:50:52;14.40;99.30
1205;DHT22;592;48.764;9.174;2023-03-23T06:53:19;14.50;99.30
1205;DHT22;592;48.764;9.174;2023-03-23T06:55:46;14.60;99.40
1205;DHT22;592;48.764;9.174;2023-03-23T06:58:13;14.70;99.40
1205;DHT22;592;48.764;9.174;2023-03-23T07:00:40;14.80;99.80
1205;DHT22;592;48.764;9.174;2023-03-23T07:03:08;14.90;99.50
1205;DHT22;592;48.764;9.174;2023-03-23T07:05:47;14.90;99.30
1205;DHT22;592;48.764;9.174;2023-03-23T07:08:14;14.90;99.90
1205;DHT22;592;48.764;9.174;2023-03-23T07:10:46;14.90;99.90
1205;DHT22;592;48.764;9.174;2023-03-23T07:13:15;14.80;99.90
1205;DHT22;592;48.764;9.174;2023-03-23T07:15:43;14.90;99.90
1205;DHT22;592;48.764;9.174;2023-03-23T07:18:15;14.90;99.90
1205;DHT22;592;48.764;9.174;2023-03-23T07:20:42;14.80;99.80
1205;DHT22;592;48.764;9.174;2023-03-23T07:23:09;14.90;99.90
1205;DHT22;592;48.764;9.174;2023-03-23T07:25:36;15.00;99.90
1205;DHT22;592;48.764;9.174;2023-03-23T07:28:03;14.80;99.70
1205;DHT22;592;48.764;9.174;2023-03-23T07:30:30;14.80;99.40
1205;DHT22;592;48.764;9.174;2023-03-23T07:32:57;14.80;99.50
1205;DHT22;592;48.764;9.174;2023-03-23T07:35:25;14.80;99.40
1205;DHT22;592;48.764;9.174;2023-03-23T07:38:02;14.80;99.40
1205;DHT22;592;48.764;9.174;2023-03-23T07:40:29;14.90;99.40
1205;DHT22;592;48.764;9.174;2023-03-23T07:43:11;14.90;99.40
1205;DHT22;592;48.764;9.174;2023-03-23T07:45:41;15.00;99.60
1205;DHT22;592;48.764;9.174;2023-03-23T07:48:09;15.00;99.60
1205;DHT22;592;48.764;9.174;2023-03-23T07:50:38;14.90;99.50
1205;DHT22;592;48.764;9.174;2023-03-23T07:53:12;15.10;99.10
1205;DHT22;592;48.764;9.174;2023-03-23T07:56:04;15.20;99.30
1205;DHT22;592;48.764;9.174;2023-03-23T07:58:46;15.40;99.50
1205;DHT22;592;48.764;9.174;2023-03-23T08:01:14;15.60;99.20
1205;DHT22;592;48.764;9.174;2023-03-23T08:03:55;15.50;99.10
1205;DHT22;592;48.764;9.174;2023-03-23T08:06:32;15.60;99.50
1205;DHT22;592;48.764;9.174;2023-03-23T08:09:00;15.40;99.40
1205;DHT22;592;48.764;9.174;2023-03-23T08:11:28;15.40;99.80
1205;DHT22;592;48.764;9.174;2023-03-23T08:13:56;15.20;99.90
1205;DHT22;592;48.764;9.174;2023-03-23T08:16:23;15.40;99.90
1205;DHT22;592;48.764;9.174;2023-03-23T08:18:51;15.30;99.90
1205;DHT22;592;48.764;9.174;2023-03-23T08:21:17;15.20;99.90
1205;DHT22;592;48.764;9.174;2023-03-23T08:23:47;15.20;99.90
1205;DHT22;592;48.764;9.174;2023-03-23T08:26:14;15.30;99.90
1205;DHT22;592;48.764;9.174;2023-03-23T08:28:42;15.40;99.90
1205;DHT22;592;48.764;9.174;2023-03-23T08:31:12;15.60;99.90
1205;DHT22;592;48.764;9.174;2023-03-23T08:33:40;15.50;99.90
1205;DHT22;592;48.764;9.174;2023-03-23T08:36:08;15.50;99.90
1205;DHT22;592;48.764;9.174;2023-03-23T08:38:37;15.40;99.90
1205;DHT22;592;48.764;9.174;2023-03-23T08:41:07;15.60;99.90
1205;DHT22;592;48.764;9.174;2023-03-23T08:43:36;15.40;99.90
1205;DHT22;592;48.764;9.174;2023-03-23T08:46:04;15.40;99.90
1205;DHT22;592;48.764;9.174;2023-03-23T08:48:35;15.40;99.90
1205;DHT22;592;48.764;9.174;2023-03-23T08:51:03;15.20;99.90
1205;DHT22;592;48.764;9.174;2023-03-23T08:53:35;15.40;99.90
1205;DHT22;592;48.764;9.174;2023-03-23T08:56:04;15.30;99.90
1205;DHT22;592;48.764;9.174;2023-03-23T08:58:32;15.10;99.90
1205;DHT22;592;48.764;9.174;2023-03-23T09:01:01;15.30;99.90
1205;DHT22;592;48.764;9.174;2023-03-23T09:03:32;15.30;99.90
1205;DHT22;592;48.764;9.174;2023-03-23T09:06:01;15.70;99.90
1205;DHT22;592;48.764;9.174;2023-03-23T09:08:49;15.20;99.90
1205;DHT22;592;48.764;9.174;2023-03-23T09:14:38;15.50;99.90
1205;DHT22;592;48.764;9.174;2023-03-23T09:28:55;15.90;99.90
1205;DHT22;592;48.764;9.174;2023-03-23T09:49:33;15.60;99.90
1205;DHT22;592;48.764;9.174;2023-03-23T09:52:05;15.60;99.90
1205;DHT22;592;48.764;9.174;2023-03-23T09:54:36;15.60;99.90
1205;DHT22;592;48.764;9.174;2023-03-23T09:57:11;15.60;99.90
1205;DHT22;592;48.764;9.174;2023-03-23T09:59:45;15.90;99.90
1205;DHT22;592;48.764;9.174;2023-03-23T10:02:15;15.90;99.90
1205;DHT22;592;48.764;9.174;2023-03-23T10:04:48;16.20;99.90
1205;DHT22;592;48.764;9.174;2023-03-23T10:07:17;16.30;99.90
1205;DHT22;592;48.764;9.174;2023-03-23T10:09:48;16.50;99.90
1205;DHT22;592;48.764;9.174;2023-03-23T10:12:23;16.50;99.90
1205;DHT22;592;48.764;9.174;2023-03-23T10:15:09;16.40;99.90
1205;DHT22;592;48.764;9.174;2023-03-23T10:17:41;16.40;99.90
1205;DHT22;592;48.764;9.174;2023-03-23T10:20:35;16.20;99.90
1205;DHT22;592;48.764;9.174;2023-03-23T10:23:20;16.30;99.90
1205;DHT22;592;48.764;9.174;2023-03-23T10:25:53;16.60;99.90
1205;DHT22;592;48.764;9.174;2023-03-23T10:28:35;16.70;99.90
1205;DHT22;592;48.764;9.174;2023-03-23T10:59:32;16.40;99.90
1205;DHT22;592;48.764;9.174;2023-03-23T11:02:02;16.60;99.90
1205;DHT22;592;48.764;9.174;2023-03-23T11:04:59;16.70;99.90
1205;DHT22;592;48.764;9.174;2023-03-23T11:07:29;16.40;99.90
1205;DHT22;592;48.764;9.174;2023-03-23T11:09:57;16.30;99.90
1205;DHT22;592;48.764;9.174;2023-03-23T11:12:33;16.20;99.90
1205;DHT22;592;48.764;9.174;2023-03-23T11:15:24;16.50;99.90
1205;DHT22;592;48.764;9.174;2023-03-23T11:18:02;16.30;99.90
1205;DHT22;592;48.764;9.174;2023-03-23T11:20:34;16.20;99.90
1205;DHT22;592;48.764;9.174;2023-03-23T11:23:13;16.20;99.90
1205;DHT22;592;48.764;9.174;2023-03-23T11:33:46;16.70;99.90
1205;DHT22;592;48.764;9.174;2023-03-23T11:36:13;16.70;99.90
1205;DHT22;592;48.764;9.174;2023-03-23T12:33:18;17.40;99.60
1205;DHT22;592;48.764;9.174;2023-03-23T12:35:59;17.40;99.80
1205;DHT22;592;48.764;9.174;2023-03-23T12:38:46;17.30;99.80
1205;DHT22;592;48.764;9.174;2023-03-23T12:43:53;17.70;99.70
1205;DHT22;592;48.764;9.174;2023-03-23T12:52:07;17.60;99.70
1205;DHT22;592;48.764;9.174;2023-03-23T12:54:42;17.50;99.60
1205;DHT22;592;48.764;9.174;2023-03-23T12:57:19;17.50;99.80
1205;DHT22;592;48.764;9.174;2023-03-23T12:59:50;17.50;99.90
1205;DHT22;592;48.764;9.174;2023-03-23T13:02:23;17.70;99.80
1205;DHT22;592;48.764;9.174;2023-03-23T13:04:55;17.40;99.80
1205;DHT22;592;48.764;9.174;2023-03-23T13:07:28;17.50;99.90
1205;DHT22;592;48.764;9.174;2023-03-23T13:10:03;17.30;99.90
1205;DHT22;592;48.764;9.174;2023-03-23T13:12:32;17.40;99.90
1205;DHT22;592;48.764;9.174;2023-03-23T13:15:11;17.40;99.90
1205;DHT22;592;48.764;9.174;2023-03-23T13:17:46;17.40;99.90
1205;DHT22;592;48.764;9.174;2023-03-23T13:20:38;17.50;99.90
1205;DHT22;592;48.764;9.174;2023-03-23T13:23:11;17.40;99.90
1205;DHT22;592;48.764;9.174;2023-03-23T13:25:53;17.70;99.90
1205;DHT22;592;48.764;9.174;2023-03-23T13:28:23;17.80;99.90
1205;DHT22;592;48.764;9.174;2023-03-23T13:31:00;17.90;99.90
1205;DHT22;592;48.764;9.174;2023-03-23T13:33:33;17.90;99.70
1205;DHT22;592;48.764;9.174;2023-03-23T13:36:08;17.90;99.70
1205;DHT22;592;48.764;9.174;2023-03-23T13:38:37;17.80;99.60
1205;DHT22;592;48.764;9.174;2023-03-23T13:41:08;18.00;99.90
1205;DHT22;592;48.764;9.174;2023-03-23T13:43:37;18.00;99.40
1205;DHT22;592;48.764;9.174;2023-03-23T13:46:10;17.80;99.30
1205;DHT22;592;48.764;9.174;2023-03-23T13:48:43;17.90;99.60
1205;DHT22;592;48.764;9.174;2023-03-23T13:51:26;18.20;99.40
1205;DHT22;592;48.764;9.174;2023-03-23T13:54:06;17.60;99.20
1205;DHT22;592;48.764;9.174;2023-03-23T13:56:36;17.50;99.50
1205;DHT22;592;48.764;9.174;2023-03-23T13:59:07;17.60;99.50
1205;DHT22;592;48.764;9.174;2023-03-23T14:01:36;17.40;99.40
1205;DHT22;592;48.764;9.174;2023-03-23T14:04:06;17.30;99.50
1205;DHT22;592;48.764;9.174;2023-03-23T14:06:35;17.20;99.60
1205;DHT22;592;48.764;9.174;2023-03-23T14:09:07;17.30;99.90
1205;DHT22;592;48.764;9.174;2023-03-23T14:11:46;17.30;99.80
1205;DHT22;592;48.764;9.174;2023-03-23T14:14:20;17.40;99.80
1205;DHT22;592;48.764;9.174;2023-03-23T14:16:50;17.60;99.80
1205;DHT22;592;48.764;9.174;2023-03-23T14:19:21;17.70;99.90
1205;DHT22;592;48.764;9.174;2023-03-23T14:21:51;17.60;98.80
1205;DHT22;592;48.764;9.174;2023-03-23T14:24:22;17.90;99.30
1205;DHT22;592;48.764;9.174;2023-03-23T14:26:51;17.50;98.90
1205;DHT22;592;48.764;9.174;2023-03-23T14:29:20;17.70;99.10
1205;DHT22;592;48.764;9.174;2023-03-23T14:31:52;17.50;98.70
1205;DHT22;592;48.764;9.174;2023-03-23T14:34:20;17.80;98.80
1205;DHT22;592;48.764;9.174;2023-03-23T14:36:48;18.10;98.80
1205;DHT22;592;48.764;9.174;2023-03-23T14:39:21;17.60;98.50
1205;DHT22;592;48.764;9.174;2023-03-23T14:41:49;17.60;98.60
1205;DHT22;592;48.764;9.174;2023-03-23T14:44:18;17.70;98.90
1205;DHT22;592;48.764;9.174;2023-03-23T14:46:47;17.60;98.50
1205;DHT22;592;48.764;9.174;2023-03-23T14:49:16;17.60;99.00
1205;DHT22;592;48.764;9.174;2023-03-23T14:51:48;17.60;98.60
1205;DHT22;592;48.764;9.174;2023-03-23T14:54:15;17.60;98.20
1205;DHT22;592;48.764;9.174;2023-03-23T14:56:43;17.60;98.40
1205;DHT22;592;48.764;9.174;2023-03-23T14:59:10;17.60;98.40
1205;DHT22;592;48.764;9.174;2023-03-23T15:01:38;17.60;98.40
1205;DHT22;592;48.764;9.174;2023-03-23T15:04:09;17.40;97.90
1205;DHT22;592;48.764;9.174;2023-03-23T15:06:40;17.60;98.50
1205;DHT22;592;48.764;9.174;2023-03-23T15:09:11;17.50;98.10
1205;DHT22;592;48.764;9.174;2023-03-23T15:11:39;17.60;98.10
1205;DHT22;592;48.764;9.174;2023-03-23T15:14:14;17.80;98.20
1205;DHT22;592;48.764;9.174;2023-03-23T15:16:46;17.50;97.80
1205;DHT22;592;48.764;9.174;2023-03-23T15:19:16;17.60;98.00
1205;DHT22;592;48.764;9.174;2023-03-23T15:21:50;17.60;97.70
1205;DHT22;592;48.764;9.174;2023-03-23T15:24:31;17.50;97.30
1205;DHT22;592;48.764;9.174;2023-03-23T15:27:13;17.60;97.70
1205;DHT22;592;48.764;9.174;2023-03-23T15:29:49;17.60;97.60
1205;DHT22;592;48.764;9.174;2023-03-23T15:32:22;17.50;97.60
1205;DHT22;592;48.764;9.174;2023-03-23T15:34:49;17.60;97.70
1205;DHT22;592;48.764;9.174;2023-03-23T15:37:20;17.40;97.90
1205;DHT22;592;48.764;9.174;2023-03-23T15:39:47;18.20;97.60
1205;DHT22;592;48.764;9.174;2023-03-23T15:42:24;17.50;97.30
1205;DHT22;592;48.764;9.174;2023-03-23T15:45:22;17.30;97.10
1205;DHT22;592;48.764;9.174;2023-03-23T15:47:50;17.30;97.20
1205;DHT22;592;48.764;9.174;2023-03-23T15:50:18;17.30;97.20
1205;DHT22;592;48.764;9.174;2023-03-23T15:52:47;17.10;97.10
1205;DHT22;592;48.764;9.174;2023-03-23T15:55:23;17.20;97.60
1205;DHT22;592;48.764;9.174;2023-03-23T15:57:51;17.20;97.40
1205;DHT22;592;48.764;9.174;2023-03-23T16:00:22;17.20;97.60
1205;DHT22;592;48.764;9.174;2023-03-23T16:02:53;17.10;97.40
1205;DHT22;592;48.764;9.174;2023-03-23T16:05:20;17.10;97.50
1205;DHT22;592;48.764;9.174;2023-03-23T16:07:47;17.10;97.50
1205;DHT22;592;48.764;9.174;2023-03-23T16:10:17;17.10;98.00
1205;DHT22;592;48.764;9.174;2023-03-23T16:12:44;16.90;97.60
1205;DHT22;592;48.764;9.174;2023-03-23T16:15:11;17.00;97.80
1205;DHT22;592;48.764;9.174;2023-03-23T16:17:40;16.90;97.70
1205;DHT22;592;48.764;9.174;2023-03-23T16:20:14;16.90;97.80
1205;DHT22;592;48.764;9.174;2023-03-23T16:22:41;16.90;97.90
1205;DHT22;592;48.764;9.174;2023-03-23T16:25:09;16.80;97.80
1205;DHT22;592;48.764;9.174;2023-03-23T16:27:36;17.20;98.00
1205;DHT22;592;48.764;9.174;2023-03-23T16:30:14;16.80;97.90
1205;DHT22;592;48.764;9.174;2023-03-23T16:32:42;16.70;97.70
1205;DHT22;592;48.764;9.174;2023-03-23T16:35:09;17.10;98.20
1205;DHT22;592;48.764;9.174;2023-03-23T16:37:36;16.80;98.00
1205;DHT22;592;48.764;9.174;2023-03-23T16:40:04;16.60;98.30
1205;DHT22;592;48.764;9.174;2023-03-23T16:42:32;16.60;98.10
1205;DHT22;592;48.764;9.174;2023-03-23T16:44:58;16.70;98.30
1205;DHT22;592;48.764;9.174;2023-03-23T16:47:25;16.60;98.30
1205;DHT22;592;48.764;9.174;2023-03-23T16:49:53;16.60;98.40
1205;DHT22;592;48.764;9.174;2023-03-23T16:52:20;16.80;98.60
1205;DHT22;592;48.764;9.174;2023-03-23T16:54:47;16.60;98.50
1205;DHT22;592;48.764;9.174;2023-03-23T16:57:14;16.60;98.70
1205;DHT22;592;48.764;9.174;2023-03-23T16:59:41;16.50;98.50
1205;DHT22;592;48.764;9.174;2023-03-23T17:02:08;16.70;98.80
1205;DHT22;592;48.764;9.174;2023-03-23T17:04:36;17.00;99.20
1205;DHT22;592;48.764;9.174;2023-03-23T17:07:04;16.70;99.00
1205;DHT22;592;48.764;9.174;2023-03-23T17:09:32;16.50;98.70
1205;DHT22;592;48.764;9.174;2023-03-23T17:11:59;16.60;99.00
1205;DHT22;592;48.764;9.174;2023-03-23T17:14:26;16.50;99.00
1205;DHT22;592;48.764;9.174;2023-03-23T17:16:52;16.30;99.00
1205;DHT22;592;48.764;9.174;2023-03-23T17:19:19;16.40;99.10
1205;DHT22;592;48.764;9.174;2023-03-23T17:21:46;16.40;99.20
1205;DHT22;592;48.764;9.174;2023-03-23T17:32:03;16.30;99.60
1205;DHT22;592;48.764;9.174;2023-03-23T17:34:30;16.20;99.60
1205;DHT22;592;48.764;9.174;2023-03-23T17:36:57;16.20;99.70
1205;DHT22;592;48.764;9.174;2023-03-23T17:39:24;16.10;99.70
1205;DHT22;592;48.764;9.174;2023-03-23T17:41:57;16.20;99.90
1205;DHT22;592;48.764;9.174;2023-03-23T17:49:42;16.10;99.90
1205;DHT22;592;48.764;9.174;2023-03-23T18:00:22;16.00;99.90
1205;DHT22;592;48.764;9.174;2023-03-23T18:13:34;16.00;99.90
1205;DHT22;592;48.764;9.174;2023-03-23T18:18:38;15.90;99.90
1205;DHT22;592;48.764;9.174;2023-03-23T18:21:06;15.90;99.90
1205;DHT22;592;48.764;9.174;2023-03-23T18:23:54;15.80;99.90
1205;DHT22;592;48.764;9.174;2023-03-23T18:26:21;15.80;99.90
1205;DHT22;592;48.764;9.174;2023-03-23T18:28:49;15.80;99.90
1205;DHT22;592;48.764;9.174;2023-03-23T18:31:17;15.80;99.90
1205;DHT22;592;48.764;9.174;2023-03-23T18:33:46;15.80;99.90
1205;DHT22;592;48.764;9.174;2023-03-23T18:36:15;15.80;99.90
1205;DHT22;592;48.764;9.174;2023-03-23T18:38:43;15.80;99.90
1205;DHT22;592;48.764;9.174;2023-03-23T18:41:12;15.70;99.90
1205;DHT22;592;48.764;9.174;2023-03-23T18:43:39;15.70;99.90
1205;DHT22;592;48.764;9.174;2023-03-23T18:46:06;15.70;99.90
1205;DHT22;592;48.764;9.174;2023-03-23T18:48:33;15.70;99.90
1205;DHT22;592;48.764;9.174;2023-03-23T18:51:00;15.70;99.90
1205;DHT22;592;48.764;9.174;2023-03-23T18:53:28;15.80;99.90
1205;DHT22;592;48.764;9.174;2023-03-23T18:56:03;15.90;99.90
1205;DHT22;592;48.764;9.174;2023-03-23T18:58:31;15.70;99.90
1205;DHT22;592;48.764;9.174;2023-03-23T19:01:01;15.50;99.90
1205;DHT22;592;48.764;9.174;2023-03-23T19:03:28;15.60;99.90
1205;DHT22;592;48.764;9.174;2023-03-23T19:05:56;15.50;99.90
1205;DHT22;592;48.764;9.174;2023-03-23T19:08:23;15.60;99.90
1205;DHT22;592;48.764;9.174;2023-03-23T19:10:55;15.50;99.90
1205;DHT22;592;48.764;9.174;2023-03-23T19:13:23;15.60;99.90
1205;DHT22;592;48.764;9.174;2023-03-23T19:15:51;15.50;99.90
1205;DHT22;592;48.764;9.174;2023-03-23T19:18:18;15.60;99.90
1205;DHT22;592;48.764;9.174;2023-03-23T19:20:45;15.70;99.90
1205;DHT22;592;48.764;9.174;2023-03-23T19:23:14;15.50;99.90
1205;DHT22;592;48.764;9.174;2023-03-23T19:25:41;15.50;99.90